Time;durP1;ratioP1;P1;durP2;ratioP2;P2;SDS_P1;SDS_P2;PMS_P1;PMS_P2;Temp;Humidity;BMP_temperature;BMP_pressure;BME280_temperature;BME280_humidity;BME280_pressure;Samples;Min_cycle;Max_cycle;Signal;HPM_P1;HPM_P2
2020/12/20 00:02:21;;;;;;;9.23;7.93;;;2.60;99.90;;;;;;5073486;28;20422;-70
2020/12/20 00:04:48;;;;;;;11.07;8.20;;;2.60;99.90;;;;;;5075391;28;20434;-70
2020/12/20 00:07:15;;;;;;;8.67;7.17;;;2.50;99.90;;;;;;5093398;28;20468;-70
2020/12/20 00:09:42;;;;;;;8.40;7.27;;;2.50;99.90;;;;;;5093655;28;20445;-70
2020/12/20 00:12:09;;;;;;;9.67;7.27;;;2.50;99.90;;;;;;5093749;28;20425;-70
2020/12/20 00:14:36;;;;;;;10.33;8.73;;;2.40;99.90;;;;;;5093640;28;20947;-70
2020/12/20 00:17:04;;;;;;;9.73;8.40;;;2.40;99.90;;;;;;5093491;28;20437;-69
2020/12/20 00:19:32;;;;;;;9.30;8.13;;;2.30;99.90;;;;;;5093731;28;20447;-70
2020/12/20 00:22:00;;;;;;;10.23;8.80;;;2.20;99.90;;;;;;5093370;28;20511;-70
2020/12/20 00:24:28;;;;;;;10.47;7.83;;;2.10;99.90;;;;;;5093607;28;20812;-69
2020/12/20 00:26:56;;;;;;;8.83;7.93;;;2.10;99.90;;;;;;5093618;28;20476;-70
2020/12/20 00:29:23;;;;;;;12.83;9.30;;;2.00;99.90;;;;;;5093314;28;20433;-70
2020/12/20 00:31:50;;;;;;;14.10;8.93;;;1.90;99.90;;;;;;5093279;28;20798;-70
2020/12/20 00:34:16;;;;;;;10.53;9.50;;;1.90;99.90;;;;;;5093184;28;20421;-70
2020/12/20 00:36:45;;;;;;;11.83;9.30;;;1.80;99.90;;;;;;5093019;28;20505;-70
2020/12/20 00:39:12;;;;;;;11.13;8.77;;;1.80;99.90;;;;;;5093316;28;20436;-70
2020/12/20 00:41:40;;;;;;;13.83;9.77;;;1.80;99.90;;;;;;5092969;28;20456;-70
2020/12/20 00:44:07;;;;;;;10.33;9.23;;;1.70;99.90;;;;;;5093376;28;20421;-69
2020/12/20 00:46:35;;;;;;;12.23;9.20;;;1.50;99.90;;;;;;5092305;28;20496;-70
2020/12/20 00:49:02;;;;;;;14.63;9.77;;;1.60;99.90;;;;;;5092852;28;20421;-70
2020/12/20 00:51:31;;;;;;;14.00;10.60;;;1.60;99.90;;;;;;5092764;28;20445;-70
2020/12/20 00:53:57;;;;;;;11.33;10.00;;;1.60;99.90;;;;;;5093071;28;20421;-69
2020/12/20 00:56:24;;;;;;;12.07;10.40;;;1.60;99.90;;;;;;5092839;28;20433;-70
2020/12/20 00:58:52;;;;;;;11.90;9.57;;;1.60;99.90;;;;;;5092326;28;20459;-70
2020/12/20 01:01:18;;;;;;;12.27;10.00;;;1.60;99.90;;;;;;5092587;28;20463;-70
2020/12/20 01:03:45;;;;;;;10.90;8.87;;;1.50;99.90;;;;;;5092518;28;20451;-70
2020/12/20 01:06:16;;;;;;;12.17;9.60;;;1.50;99.90;;;;;;5092498;28;20542;-69
2020/12/20 01:08:43;;;;;;;11.80;9.27;;;1.50;99.90;;;;;;5092686;28;20924;-70
2020/12/20 01:11:09;;;;;;;9.03;8.10;;;1.50;99.90;;;;;;5092502;28;20445;-70
2020/12/20 01:13:36;;;;;;;10.60;7.30;;;1.50;99.90;;;;;;5092416;28;20421;-70
2020/12/20 01:16:04;;;;;;;7.47;6.70;;;1.50;99.90;;;;;;5092258;28;20467;-70
2020/12/20 01:18:31;;;;;;;9.70;8.53;;;1.50;99.90;;;;;;5092129;28;20435;-70
2020/12/20 01:20:58;;;;;;;7.40;6.70;;;1.50;99.90;;;;;;5092278;28;20441;-70
2020/12/20 01:23:28;;;;;;;10.23;7.73;;;1.40;99.90;;;;;;5086585;28;20438;-70
2020/12/20 01:25:54;;;;;;;11.13;8.90;;;1.40;99.90;;;;;;5072190;28;20993;-70
2020/12/20 01:28:21;;;;;;;10.63;8.93;;;1.40;99.90;;;;;;5072012;28;20958;-69
2020/12/20 01:30:48;;;;;;;9.90;8.30;;;1.40;99.90;;;;;;5072084;28;20853;-70
2020/12/20 01:33:15;;;;;;;10.37;8.60;;;1.50;99.90;;;;;;5071897;28;20430;-69
2020/12/20 01:35:42;;;;;;;9.10;7.50;;;1.40;99.90;;;;;;5071850;28;20434;-70
2020/12/20 01:38:08;;;;;;;9.50;8.50;;;1.40;99.90;;;;;;5071744;28;20438;-70
2020/12/20 01:40:35;;;;;;;8.43;7.23;;;1.30;99.90;;;;;;5071568;28;20446;-70
2020/12/20 01:43:02;;;;;;;11.90;9.40;;;1.40;99.90;;;;;;5071674;28;20426;-69
2020/12/20 01:45:28;;;;;;;10.00;8.20;;;1.40;99.90;;;;;;5070880;28;20487;-70
2020/12/20 01:47:55;;;;;;;12.63;8.77;;;1.40;99.90;;;;;;5071522;28;20470;-70
2020/12/20 01:50:23;;;;;;;9.17;8.23;;;1.40;99.90;;;;;;5071235;28;20458;-69
2020/12/20 01:52:50;;;;;;;9.40;8.00;;;1.40;99.90;;;;;;5071546;28;20438;-70
2020/12/20 01:55:19;;;;;;;10.47;8.10;;;1.50;99.90;;;;;;5071407;28;20426;-70
2020/12/20 01:57:45;;;;;;;11.80;7.77;;;1.50;99.90;;;;;;5071515;28;20430;-70
2020/12/20 02:00:12;;;;;;;13.03;8.93;;;1.40;99.90;;;;;;5071348;28;20451;-70
2020/12/20 02:02:39;;;;;;;11.23;8.37;;;1.40;99.90;;;;;;5071265;28;20441;-69
2020/12/20 02:05:05;;;;;;;17.13;10.07;;;1.50;99.90;;;;;;5071398;28;20426;-70
2020/12/20 02:07:33;;;;;;;10.43;8.47;;;1.60;99.90;;;;;;5070668;28;20860;-70
2020/12/20 02:10:00;;;;;;;10.10;8.17;;;1.60;99.90;;;;;;5071345;28;20826;-70
2020/12/20 02:12:27;;;;;;;9.40;8.07;;;1.70;99.90;;;;;;5071390;28;20795;-69
2020/12/20 02:14:54;;;;;;;13.73;10.43;;;1.70;99.90;;;;;;5071475;28;20520;-70
2020/12/20 02:17:21;;;;;;;12.20;8.63;;;1.80;99.90;;;;;;5070546;28;20433;-70
2020/12/20 02:19:47;;;;;;;10.03;8.60;;;1.90;99.90;;;;;;5070546;28;20938;-69
2020/12/20 02:22:15;;;;;;;13.13;9.57;;;1.90;99.90;;;;;;5071063;28;20480;-70
2020/12/20 02:24:42;;;;;;;10.50;8.57;;;1.90;99.90;;;;;;5071053;28;20652;-69
2020/12/20 02:27:09;;;;;;;9.30;8.13;;;2.00;99.90;;;;;;5070520;28;20461;-70
2020/12/20 02:29:36;;;;;;;8.90;7.87;;;2.10;99.90;;;;;;5070738;28;20437;-69
2020/12/20 02:32:03;;;;;;;9.57;8.57;;;2.20;99.90;;;;;;5070956;28;20425;-70
2020/12/20 02:34:29;;;;;;;11.17;9.10;;;2.20;99.90;;;;;;5070919;28;20932;-70
2020/12/20 02:36:56;;;;;;;10.07;8.90;;;2.20;99.90;;;;;;5070872;28;20426;-70
2020/12/20 02:39:24;;;;;;;9.10;7.40;;;2.20;99.90;;;;;;5070714;28;20419;-70
2020/12/20 02:41:54;;;;;;;10.70;8.40;;;2.40;99.90;;;;;;5071233;28;20502;-70
2020/12/20 02:44:21;;;;;;;8.80;6.37;;;2.40;99.90;;;;;;5071256;28;20437;-70
2020/12/20 02:46:48;;;;;;;11.17;8.10;;;2.30;99.90;;;;;;5071200;28;20469;-69
2020/12/20 02:49:15;;;;;;;8.90;7.13;;;2.40;99.90;;;;;;5070884;28;21021;-70
2020/12/20 02:51:41;;;;;;;10.47;7.33;;;2.50;99.90;;;;;;5070846;28;20521;-70
2020/12/20 02:54:08;;;;;;;6.50;5.90;;;2.50;99.90;;;;;;5082494;28;20445;-69
2020/12/20 02:56:43;;;;;;;7.40;6.03;;;2.50;99.90;;;;;;5090930;28;20936;-69
2020/12/20 02:59:09;;;;;;;6.80;6.20;;;2.60;99.90;;;;;;5090924;28;20409;-70
2020/12/20 03:01:36;;;;;;;7.97;5.53;;;2.60;99.90;;;;;;5090847;28;20474;-70
2020/12/20 03:04:02;;;;;;;10.47;6.00;;;2.60;99.90;;;;;;5090687;28;20426;-70
2020/12/20 03:06:29;;;;;;;6.33;5.30;;;2.60;99.90;;;;;;5090723;28;20495;-70
2020/12/20 03:08:56;;;;;;;6.27;5.63;;;2.60;99.90;;;;;;5090796;28;20425;-70
2020/12/20 03:11:23;;;;;;;6.40;5.40;;;2.70;99.90;;;;;;5091011;28;20463;-70
2020/12/20 03:13:50;;;;;;;8.23;5.60;;;2.70;99.90;;;;;;5090857;28;20432;-70
2020/12/20 03:16:17;;;;;;;7.97;5.87;;;2.70;99.90;;;;;;5090842;28;20982;-70
2020/12/20 03:18:44;;;;;;;7.00;5.67;;;2.70;99.90;;;;;;5090791;28;20424;-70
2020/12/20 03:21:11;;;;;;;5.23;4.70;;;2.70;99.90;;;;;;5090509;28;20446;-70
2020/12/20 03:23:37;;;;;;;5.43;4.93;;;2.70;99.90;;;;;;5091142;28;20508;-69
2020/12/20 03:26:06;;;;;;;8.00;5.40;;;2.80;99.90;;;;;;5090833;28;20509;-70
2020/12/20 03:28:33;;;;;;;6.20;5.00;;;2.80;99.90;;;;;;5090851;28;20794;-70
2020/12/20 03:31:01;;;;;;;7.10;6.17;;;2.80;99.90;;;;;;5090407;28;20445;-69
2020/12/20 03:33:27;;;;;;;6.90;5.37;;;2.80;99.90;;;;;;5090714;28;20421;-70
2020/12/20 03:35:54;;;;;;;6.83;5.23;;;2.80;99.90;;;;;;5090688;28;20425;-70
2020/12/20 03:38:21;;;;;;;7.70;5.37;;;2.80;99.90;;;;;;5090533;28;20789;-69
2020/12/20 03:40:47;;;;;;;6.57;5.43;;;2.80;99.90;;;;;;5093147;28;20498;-69
2020/12/20 03:43:14;;;;;;;5.77;5.23;;;2.70;99.90;;;;;;5094286;28;20436;-70
2020/12/20 03:45:43;;;;;;;7.50;5.17;;;2.80;99.90;;;;;;5093909;28;20424;-70
2020/12/20 03:48:11;;;;;;;7.17;5.57;;;2.70;99.90;;;;;;5093891;28;20518;-70
2020/12/20 03:50:38;;;;;;;6.67;6.07;;;2.70;99.90;;;;;;5093956;28;20457;-70
2020/12/20 03:53:04;;;;;;;11.33;6.37;;;2.70;99.90;;;;;;5094462;28;20436;-70
2020/12/20 03:55:31;;;;;;;9.90;8.40;;;2.70;99.90;;;;;;5094206;28;20444;-70
2020/12/20 03:57:58;;;;;;;8.60;7.77;;;2.60;99.90;;;;;;5094006;28;20835;-69
2020/12/20 04:00:24;;;;;;;6.47;5.80;;;2.60;99.90;;;;;;5094075;28;20452;-70
2020/12/20 04:02:51;;;;;;;8.57;6.80;;;2.60;99.90;;;;;;5093623;28;20437;-70
2020/12/20 04:05:18;;;;;;;7.63;6.87;;;2.60;99.90;;;;;;5093825;28;20425;-69
2020/12/20 04:07:45;;;;;;;7.50;6.30;;;2.60;99.90;;;;;;5093646;28;20977;-70
2020/12/20 04:10:12;;;;;;;6.70;5.70;;;2.70;99.90;;;;;;5093834;28;20775;-69
2020/12/20 04:12:38;;;;;;;5.47;4.83;;;2.80;99.90;;;;;;5093691;28;20513;-70
2020/12/20 04:15:05;;;;;;;4.80;4.30;;;2.80;99.90;;;;;;5093552;28;20447;-69
2020/12/20 04:17:32;;;;;;;4.50;4.07;;;3.00;99.90;;;;;;5093840;28;20464;-69
2020/12/20 04:19:58;;;;;;;4.53;3.93;;;3.10;99.90;;;;;;5093545;28;20449;-69
2020/12/20 04:22:26;;;;;;;4.97;4.23;;;3.20;99.90;;;;;;5093434;28;20425;-70
2020/12/20 04:24:52;;;;;;;6.60;5.30;;;3.20;99.90;;;;;;5093637;28;21112;-69
2020/12/20 04:27:19;;;;;;;5.43;4.60;;;3.20;99.90;;;;;;5093288;28;20825;-70
2020/12/20 04:29:46;;;;;;;8.23;5.17;;;3.20;99.90;;;;;;5094043;28;20453;-70
2020/12/20 04:32:12;;;;;;;5.57;4.77;;;3.20;99.90;;;;;;5093602;28;20494;-70
2020/12/20 04:34:39;;;;;;;6.90;5.23;;;3.20;99.90;;;;;;5093865;28;20441;-70
2020/12/20 04:37:06;;;;;;;7.97;5.57;;;3.10;99.90;;;;;;5085118;28;20445;-71
2020/12/20 04:39:33;;;;;;;5.90;5.30;;;3.10;99.90;;;;;;5073104;28;20426;-71
2020/12/20 04:42:00;;;;;;;5.73;4.83;;;3.00;99.90;;;;;;5073168;28;20509;-70
2020/12/20 04:44:27;;;;;;;4.87;4.37;;;3.00;99.90;;;;;;5073267;28;20426;-70
2020/12/20 04:46:55;;;;;;;6.80;5.30;;;3.00;99.90;;;;;;5074001;28;20876;-70
2020/12/20 04:49:23;;;;;;;5.60;4.63;;;3.10;99.90;;;;;;5073765;28;20437;-70
2020/12/20 04:51:51;;;;;;;5.77;5.17;;;3.20;99.90;;;;;;5072735;28;20426;-70
2020/12/20 04:54:18;;;;;;;4.80;4.10;;;3.20;99.90;;;;;;5072986;28;21013;-71
2020/12/20 04:56:45;;;;;;;8.30;5.03;;;3.20;99.90;;;;;;5072905;28;20434;-70
2020/12/20 04:59:13;;;;;;;6.73;5.10;;;3.10;99.90;;;;;;5072811;28;20448;-71
2020/12/20 05:01:40;;;;;;;6.30;5.40;;;3.10;99.90;;;;;;5072360;28;20462;-71
2020/12/20 05:04:07;;;;;;;7.10;5.70;;;3.10;99.90;;;;;;5072597;28;20445;-70
2020/12/20 05:06:34;;;;;;;5.63;5.10;;;3.00;99.90;;;;;;5072644;28;20469;-70
2020/12/20 05:09:03;;;;;;;6.43;5.27;;;3.00;99.90;;;;;;5073314;28;20784;-71
2020/12/20 05:11:37;;;;;;;7.40;5.40;;;2.90;99.90;;;;;;5072396;28;20442;-70
2020/12/20 05:14:06;;;;;;;6.30;5.70;;;2.90;99.90;;;;;;5073342;28;21000;-70
2020/12/20 05:16:35;;;;;;;6.80;6.10;;;2.90;99.90;;;;;;5072874;28;20492;-70
2020/12/20 05:19:03;;;;;;;6.10;5.43;;;2.90;99.90;;;;;;5071905;28;20445;-70
2020/12/20 05:21:30;;;;;;;7.70;5.90;;;2.90;99.90;;;;;;5072065;28;20526;-70
2020/12/20 05:23:58;;;;;;;6.67;5.90;;;2.80;99.90;;;;;;5072218;28;20510;-70
2020/12/20 05:26:26;;;;;;;5.57;5.07;;;2.80;99.90;;;;;;5071963;28;20447;-70
2020/12/20 05:29:06;;;;;;;7.63;6.67;;;2.80;99.90;;;;;;5072292;28;20450;-71
2020/12/20 05:31:33;;;;;;;6.83;5.20;;;2.80;99.90;;;;;;5071901;28;20464;-70
2020/12/20 05:34:00;;;;;;;5.97;5.23;;;2.80;99.90;;;;;;5071863;28;20434;-71
2020/12/20 05:36:28;;;;;;;7.77;5.67;;;2.80;99.90;;;;;;5071788;28;20491;-71
2020/12/20 05:39:11;;;;;;;6.20;5.10;;;2.80;99.90;;;;;;5072110;28;20545;-70
2020/12/20 05:41:37;;;;;;;8.63;6.50;;;2.90;99.90;;;;;;5071635;28;20491;-71
2020/12/20 05:44:16;;;;;;;6.53;5.57;;;2.80;99.90;;;;;;5071999;28;20487;-70
2020/12/20 05:46:45;;;;;;;7.83;5.50;;;2.80;99.90;;;;;;5071653;28;20827;-71
2020/12/20 05:49:19;;;;;;;7.20;6.50;;;2.80;99.90;;;;;;5071525;28;20456;-71
2020/12/20 05:52:06;;;;;;;9.40;6.47;;;2.80;99.90;;;;;;5071561;28;20422;-71
2020/12/20 05:54:35;;;;;;;8.67;6.90;;;2.70;99.90;;;;;;5071631;28;21101;-71
2020/12/20 05:57:09;;;;;;;7.80;5.93;;;2.70;99.90;;;;;;5071645;28;20430;-71
2020/12/20 05:59:36;;;;;;;6.63;5.37;;;2.60;99.90;;;;;;5071465;28;20411;-71
2020/12/20 06:02:05;;;;;;;6.73;6.00;;;2.60;99.90;;;;;;5070567;28;20450;-70
2020/12/20 06:04:32;;;;;;;11.70;7.20;;;2.60;99.90;;;;;;5071326;28;20430;-70
2020/12/20 06:06:59;;;;;;;9.53;6.47;;;2.60;99.90;;;;;;5071342;28;20449;-70
2020/12/20 06:09:27;;;;;;;10.00;7.20;;;2.50;99.90;;;;;;5071436;28;20430;-70
2020/12/20 06:11:55;;;;;;;18.80;11.93;;;2.50;99.90;;;;;;5071181;28;20434;-71
2020/12/20 06:14:29;;;;;;;10.40;7.43;;;2.50;99.90;;;;;;5071700;28;20483;-70
2020/12/20 06:17:13;;;;;;;6.03;5.43;;;2.50;99.90;;;;;;5071349;28;20434;-70
2020/12/20 06:19:58;;;;;;;7.00;4.90;;;2.50;99.90;;;;;;5071015;28;20468;-70
2020/12/20 06:22:28;;;;;;;7.37;5.20;;;2.40;99.90;;;;;;5071264;28;20441;-70
2020/12/20 06:24:57;;;;;;;5.00;4.53;;;2.40;99.90;;;;;;5071985;28;20499;-69
2020/12/20 06:27:25;;;;;;;5.90;5.03;;;2.30;99.90;;;;;;5071443;28;20521;-70
2020/12/20 06:29:54;;;;;;;5.13;4.27;;;2.30;99.90;;;;;;5071375;28;20850;-70
2020/12/20 06:32:42;;;;;;;10.33;5.83;;;2.30;99.90;;;;;;5071719;28;20958;-70
2020/12/20 06:35:13;;;;;;;9.40;6.70;;;2.20;99.90;;;;;;5071541;28;20498;-70
2020/12/20 06:37:43;;;;;;;8.27;7.47;;;2.20;99.90;;;;;;5071599;28;20428;-70
2020/12/20 06:40:11;;;;;;;8.73;6.77;;;2.10;99.90;;;;;;5071853;28;20452;-70
2020/12/20 06:42:40;;;;;;;10.07;7.07;;;2.10;99.90;;;;;;5073599;28;20421;-70
2020/12/20 06:45:21;;;;;;;7.83;7.00;;;2.00;99.90;;;;;;5081010;28;20437;-70
2020/12/20 06:47:50;;;;;;;9.33;7.60;;;1.90;99.90;;;;;;5077548;28;20477;-69
2020/12/20 06:50:42;;;;;;;9.10;8.20;;;1.90;99.90;;;;;;5079268;28;20858;-70
2020/12/20 06:53:09;;;;;;;11.43;10.03;;;1.80;99.90;;;;;;5073191;28;20816;-70
2020/12/20 06:55:36;;;;;;;10.43;8.60;;;1.80;99.90;;;;;;5074903;28;20927;-69
2020/12/20 06:58:12;;;;;;;14.17;11.77;;;1.80;99.90;;;;;;5078837;28;20430;-69
2020/12/20 07:00:41;;;;;;;39.20;20.70;;;1.70;99.90;;;;;;5078830;28;20452;-70
2020/12/20 07:03:09;;;;;;;26.67;15.43;;;1.70;99.90;;;;;;5069619;28;20428;-70
2020/12/20 07:05:42;;;;;;;22.63;14.37;;;1.70;99.90;;;;;;5072017;28;20441;-69
2020/12/20 07:08:22;;;;;;;11.87;7.20;;;1.80;99.90;;;;;;5079079;28;20514;-69
2020/12/20 07:10:53;;;;;;;28.83;20.07;;;1.70;99.90;;;;;;5078860;28;20449;-69
2020/12/20 07:13:32;;;;;;;35.73;21.63;;;1.70;99.90;;;;;;5079629;28;20447;-70
2020/12/20 07:16:05;;;;;;;12.47;8.83;;;1.70;99.90;;;;;;5074286;28;20418;-71
2020/12/20 07:18:47;;;;;;;13.10;10.47;;;1.60;99.90;;;;;;5073325;28;20459;-71
2020/12/20 07:21:38;;;;;;;13.17;10.70;;;1.60;99.90;;;;;;5081785;28;20814;-70
2020/12/20 07:24:11;;;;;;;9.63;7.83;;;1.50;99.90;;;;;;5087565;28;20774;-70
2020/12/20 07:26:38;;;;;;;11.60;8.40;;;1.50;99.90;;;;;;5084653;28;20501;-70
2020/12/20 07:29:06;;;;;;;11.57;8.73;;;1.40;99.90;;;;;;5082039;28;20430;-71
2020/12/20 07:31:34;;;;;;;10.53;8.70;;;1.50;99.90;;;;;;5085019;28;20444;-71
2020/12/20 07:34:02;;;;;;;13.10;9.30;;;1.40;99.90;;;;;;5085444;28;20425;-71
2020/12/20 07:36:29;;;;;;;15.90;10.50;;;1.40;99.90;;;;;;5081936;28;20458;-71
2020/12/20 07:38:56;;;;;;;14.50;10.57;;;1.50;99.90;;;;;;5074325;28;20417;-71
2020/12/20 07:41:24;;;;;;;17.83;12.50;;;1.50;99.90;;;;;;5073993;28;20456;-70
2020/12/20 07:43:52;;;;;;;16.13;11.43;;;1.50;99.90;;;;;;5074378;28;20427;-70
2020/12/20 07:46:20;;;;;;;18.30;14.43;;;1.50;99.90;;;;;;5081182;28;20422;-71
2020/12/20 07:48:47;;;;;;;17.90;13.93;;;1.50;99.90;;;;;;5074284;28;20512;-70
2020/12/20 07:51:16;;;;;;;14.10;10.30;;;1.50;99.90;;;;;;5074158;28;20491;-70
2020/12/20 07:53:47;;;;;;;17.97;9.33;;;1.70;99.90;;;;;;5073799;28;20424;-70
2020/12/20 07:56:24;;;;;;;12.60;9.17;;;1.80;99.90;;;;;;5073966;28;20438;-70
2020/12/20 07:58:51;;;;;;;11.27;7.27;;;1.80;99.90;;;;;;5074160;28;20850;-70
2020/12/20 08:01:18;;;;;;;7.97;7.17;;;1.90;99.90;;;;;;5073369;28;20503;-70
2020/12/20 08:03:45;;;;;;;7.80;6.80;;;1.90;99.90;;;;;;5073218;28;20421;-68
2020/12/20 08:06:14;;;;;;;13.30;10.33;;;2.00;99.90;;;;;;5073473;28;20425;-69
2020/12/20 08:08:42;;;;;;;17.83;11.80;;;2.10;99.90;;;;;;5073315;28;20500;-68
2020/12/20 08:11:20;;;;;;;21.60;14.03;;;2.20;99.90;;;;;;5073383;28;20442;-69
2020/12/20 08:13:57;;;;;;;34.63;20.53;;;2.30;99.90;;;;;;5078179;28;20422;-70
2020/12/20 08:16:26;;;;;;;24.27;13.63;;;2.40;99.90;;;;;;5082444;28;20471;-69
2020/12/20 08:19:01;;;;;;;10.30;8.17;;;2.40;99.90;;;;;;5081256;28;20418;-70
2020/12/20 08:21:47;;;;;;;15.30;8.80;;;2.50;99.90;;;;;;5072627;28;20475;-68
2020/12/20 08:24:15;;;;;;;10.00;8.30;;;2.60;99.90;;;;;;5084818;28;20931;-67
2020/12/20 08:26:43;;;;;;;11.63;8.20;;;2.60;99.90;;;;;;5081043;28;20764;-68
2020/12/20 08:29:13;;;;;;;11.70;9.93;;;2.60;99.90;;;;;;5082758;28;20440;-67
2020/12/20 08:31:40;;;;;;;11.63;9.80;;;2.60;99.90;;;;;;5083011;28;20880;-69
2020/12/20 08:34:18;;;;;;;9.40;7.00;;;2.60;99.90;;;;;;5082300;28;20525;-68
2020/12/20 08:36:47;;;;;;;10.73;8.07;;;2.60;99.90;;;;;;5084507;28;20429;-68
2020/12/20 08:39:14;;;;;;;10.63;7.97;;;2.60;99.90;;;;;;5083074;28;20960;-68
2020/12/20 08:41:41;;;;;;;8.00;7.20;;;2.50;99.90;;;;;;5086359;28;20448;-69
2020/12/20 08:44:09;;;;;;;8.30;7.23;;;2.50;99.90;;;;;;5092884;28;20417;-69
2020/12/20 08:46:38;;;;;;;9.50;7.60;;;2.50;99.90;;;;;;5093050;28;20472;-68
2020/12/20 08:49:18;;;;;;;9.63;7.53;;;2.60;99.90;;;;;;5092641;28;20813;-68
2020/12/20 08:51:47;;;;;;;12.03;10.07;;;2.60;99.90;;;;;;5092773;28;20435;-67
2020/12/20 08:54:24;;;;;;;20.07;11.87;;;2.60;99.90;;;;;;5092722;28;20520;-68
2020/12/20 08:56:59;;;;;;;10.87;8.80;;;2.70;99.90;;;;;;5092609;28;20439;-68
2020/12/20 08:59:30;;;;;;;13.43;9.30;;;2.80;99.90;;;;;;5089810;28;20448;-68
2020/12/20 09:01:58;;;;;;;10.20;9.07;;;2.80;99.90;;;;;;5072401;28;20915;-68
2020/12/20 09:04:25;;;;;;;9.40;8.50;;;2.80;99.90;;;;;;5072232;28;20430;-68
2020/12/20 09:07:04;;;;;;;14.70;9.00;;;3.00;99.90;;;;;;5072250;28;20492;-69
2020/12/20 09:09:31;;;;;;;15.90;8.17;;;3.20;99.90;;;;;;5074641;28;20513;-70
2020/12/20 09:12:14;;;;;;;12.80;9.60;;;3.30;99.90;;;;;;5085785;28;20444;-70
2020/12/20 09:14:41;;;;;;;13.37;10.80;;;3.50;99.90;;;;;;5081665;28;20965;-70
2020/12/20 09:17:08;;;;;;;24.37;17.80;;;3.70;99.90;;;;;;5081366;28;20435;-70
2020/12/20 09:19:35;;;;;;;11.77;9.50;;;3.90;99.90;;;;;;5079907;28;20798;-70
2020/12/20 09:22:02;;;;;;;13.37;9.50;;;4.10;99.90;;;;;;5081407;28;20437;-70
2020/12/20 09:24:30;;;;;;;13.30;9.37;;;4.20;99.90;;;;;;5081015;28;20635;-69
2020/12/20 09:26:59;;;;;;;12.60;9.93;;;4.10;99.90;;;;;;5082749;28;20461;-70
2020/12/20 09:29:27;;;;;;;10.20;8.70;;;4.00;99.90;;;;;;5082465;28;20932;-71
2020/12/20 09:31:54;;;;;;;9.47;8.50;;;4.00;99.90;;;;;;5082132;28;20522;-69
2020/12/20 09:34:32;;;;;;;19.83;11.13;;;4.00;99.90;;;;;;5082424;28;20429;-69
2020/12/20 09:37:04;;;;;;;13.47;10.10;;;4.00;99.90;;;;;;5071654;28;20433;-69
2020/12/20 09:39:30;;;;;;;15.80;11.23;;;4.00;99.90;;;;;;5071257;28;20426;-70
2020/12/20 09:41:57;;;;;;;14.60;12.70;;;4.10;99.90;;;;;;5080100;28;20422;-68
2020/12/20 09:44:24;;;;;;;17.83;13.27;;;4.20;99.90;;;;;;5083142;28;20429;-70
2020/12/20 09:46:52;;;;;;;14.27;12.43;;;4.30;99.90;;;;;;5080445;28;20534;-70
2020/12/20 09:49:19;;;;;;;13.23;11.20;;;4.30;99.90;;;;;;5071165;28;20450;-68
2020/12/20 09:51:48;;;;;;;9.40;7.93;;;4.40;99.90;;;;;;5071354;28;20418;-68
2020/12/20 09:54:16;;;;;;;11.60;10.23;;;4.50;99.90;;;;;;5071016;28;20991;-67
2020/12/20 09:56:42;;;;;;;12.40;9.20;;;4.60;99.90;;;;;;5070625;28;20779;-68
2020/12/20 09:59:09;;;;;;;9.30;8.30;;;4.70;99.90;;;;;;5076480;28;20910;-68
2020/12/20 10:01:36;;;;;;;12.00;7.80;;;4.80;99.90;;;;;;5080838;28;20773;-70
2020/12/20 10:04:03;;;;;;;11.47;7.93;;;4.90;99.90;;;;;;5079599;28;20422;-66
2020/12/20 10:06:29;;;;;;;12.17;8.17;;;5.00;99.90;;;;;;5078971;28;20426;-67
2020/12/20 10:08:56;;;;;;;10.00;7.67;;;5.00;99.90;;;;;;5080860;28;20523;-67
2020/12/20 10:11:24;;;;;;;8.07;7.27;;;5.10;99.90;;;;;;5079553;28;20504;-67
2020/12/20 10:13:50;;;;;;;10.07;8.10;;;5.20;99.90;;;;;;5070604;28;20434;-67
2020/12/20 10:16:21;;;;;;;9.60;7.70;;;5.20;99.90;;;;;;5070602;28;20422;-67
2020/12/20 10:18:47;;;;;;;9.10;7.70;;;5.30;99.90;;;;;;5070245;28;20429;-67
2020/12/20 10:21:14;;;;;;;13.13;11.03;;;5.20;99.90;;;;;;5069710;28;20454;-67
2020/12/20 10:23:41;;;;;;;10.47;7.60;;;5.20;99.90;;;;;;5070422;28;20968;-67
2020/12/20 10:26:10;;;;;;;11.97;9.87;;;5.20;99.90;;;;;;5070272;28;20434;-66
2020/12/20 10:28:37;;;;;;;11.57;8.63;;;5.20;99.90;;;;;;5069601;28;20461;-66
2020/12/20 10:31:04;;;;;;;14.87;9.77;;;5.30;99.90;;;;;;5068912;28;20442;-68
2020/12/20 10:33:31;;;;;;;12.63;9.73;;;5.20;99.90;;;;;;5069500;28;20457;-66
2020/12/20 10:35:58;;;;;;;10.37;8.63;;;5.40;99.90;;;;;;5069049;28;20418;-68
2020/12/20 10:38:25;;;;;;;8.67;7.50;;;5.40;99.90;;;;;;5069177;28;20426;-66
2020/12/20 10:40:51;;;;;;;13.07;9.20;;;5.40;99.90;;;;;;5069165;28;20453;-66
2020/12/20 10:43:20;;;;;;;9.93;8.10;;;5.50;99.90;;;;;;5077757;28;20429;-67
2020/12/20 10:45:48;;;;;;;9.57;8.53;;;5.60;99.90;;;;;;5082125;28;20432;-67
2020/12/20 10:48:15;;;;;;;8.83;7.93;;;5.70;99.90;;;;;;5081785;28;20884;-67
2020/12/20 10:50:42;;;;;;;11.40;7.83;;;5.90;99.90;;;;;;5069189;28;20478;-67
2020/12/20 10:53:10;;;;;;;10.97;9.47;;;6.00;99.90;;;;;;5080545;28;20922;-67
2020/12/20 10:55:37;;;;;;;61.63;42.53;;;6.10;99.90;;;;;;5081996;28;20422;-67
2020/12/20 10:58:04;;;;;;;14.23;9.80;;;6.20;99.90;;;;;;5081908;28;20439;-67
2020/12/20 11:00:30;;;;;;;13.30;10.07;;;6.50;99.90;;;;;;5082215;28;20791;-66
2020/12/20 11:02:58;;;;;;;14.97;11.47;;;6.60;99.90;;;;;;5081886;28;20422;-67
2020/12/20 11:05:25;;;;;;;8.70;7.80;;;6.60;99.90;;;;;;5081395;28;20474;-67
2020/12/20 11:07:52;;;;;;;11.73;8.30;;;6.70;99.90;;;;;;5077548;28;20524;-67
2020/12/20 11:10:19;;;;;;;14.07;9.73;;;6.80;99.90;;;;;;5081198;28;20450;-67
2020/12/20 11:12:45;;;;;;;29.87;18.33;;;7.00;99.90;;;;;;5081867;28;20423;-67
2020/12/20 11:15:12;;;;;;;20.00;13.67;;;6.90;99.90;;;;;;5086811;28;20427;-67
2020/12/20 11:17:39;;;;;;;16.37;11.60;;;6.90;99.90;;;;;;5078366;28;20438;-67
2020/12/20 11:20:06;;;;;;;17.80;12.60;;;6.80;99.90;;;;;;5079448;28;20442;-67
2020/12/20 11:22:33;;;;;;;15.17;9.77;;;6.80;99.90;;;;;;5079154;28;20478;-67
2020/12/20 11:24:59;;;;;;;11.27;9.00;;;6.80;99.90;;;;;;5081174;28;20433;-68
2020/12/20 11:27:27;;;;;;;11.93;9.50;;;6.80;99.90;;;;;;5079309;28;20527;-68
2020/12/20 11:29:54;;;;;;;13.30;9.63;;;6.90;99.90;;;;;;5074645;28;20446;-69
2020/12/20 11:32:21;;;;;;;14.37;11.47;;;7.00;99.90;;;;;;5084084;28;20964;-69
2020/12/20 11:34:47;;;;;;;10.83;7.43;;;7.20;99.90;;;;;;5084484;28;20426;-69
2020/12/20 11:37:15;;;;;;;11.57;8.03;;;7.40;99.90;;;;;;5077159;28;20427;-69
2020/12/20 11:39:42;;;;;;;10.27;6.60;;;7.50;99.90;;;;;;5079821;28;20529;-69
2020/12/20 11:42:10;;;;;;;13.07;9.70;;;7.60;99.90;;;;;;5079872;28;20429;-69
2020/12/20 11:44:37;;;;;;;34.37;20.43;;;7.70;99.90;;;;;;5080168;28;20435;-70
2020/12/20 11:47:03;;;;;;;24.97;17.20;;;7.90;99.90;;;;;;5080142;28;20479;-68
2020/12/20 11:49:30;;;;;;;14.93;10.77;;;7.90;99.90;;;;;;5080069;28;20434;-68
2020/12/20 11:51:57;;;;;;;12.50;10.90;;;8.00;99.90;;;;;;5078668;28;20420;-68
2020/12/20 11:54:25;;;;;;;11.40;8.43;;;8.00;99.90;;;;;;5080688;28;20996;-68
2020/12/20 11:56:52;;;;;;;9.70;7.33;;;8.00;99.90;;;;;;5080523;28;20475;-68
2020/12/20 11:59:18;;;;;;;8.27;6.73;;;7.90;99.90;;;;;;5078681;28;20419;-66
2020/12/20 12:01:45;;;;;;;7.10;6.40;;;7.90;99.90;;;;;;5082788;28;20418;-66
2020/12/20 12:04:12;;;;;;;8.33;5.90;;;7.90;99.90;;;;;;5081269;28;20429;-66
2020/12/20 12:06:41;;;;;;;9.43;6.40;;;7.80;99.90;;;;;;5084515;28;20429;-67
2020/12/20 12:09:08;;;;;;;8.63;7.33;;;7.90;99.90;;;;;;5083170;28;20557;-66
2020/12/20 12:11:35;;;;;;;13.03;8.43;;;7.90;99.90;;;;;;5092589;28;20810;-69
2020/12/20 12:14:02;;;;;;;12.57;9.97;;;7.90;99.90;;;;;;5093749;28;20949;-69
2020/12/20 12:16:29;;;;;;;12.73;9.37;;;7.90;99.90;;;;;;5093122;28;20431;-68
2020/12/20 12:18:56;;;;;;;11.73;10.20;;;7.90;99.90;;;;;;5093399;28;20433;-69
2020/12/20 12:21:22;;;;;;;11.20;9.00;;;8.00;99.90;;;;;;5092154;28;20830;-68
2020/12/20 12:23:49;;;;;;;10.33;8.70;;;8.00;99.90;;;;;;5093569;28;20417;-68
2020/12/20 12:26:16;;;;;;;10.03;8.53;;;8.10;99.90;;;;;;5093514;28;20422;-68
2020/12/20 12:28:44;;;;;;;11.03;8.77;;;8.20;99.90;;;;;;5093181;28;20473;-69
2020/12/20 12:31:10;;;;;;;11.30;8.20;;;8.30;99.90;;;;;;5092688;28;20449;-68
2020/12/20 12:33:37;;;;;;;9.70;8.30;;;8.40;99.90;;;;;;5082590;28;20920;-68
2020/12/20 12:36:05;;;;;;;12.40;9.13;;;8.50;99.90;;;;;;5082185;28;20440;-68
2020/12/20 12:38:32;;;;;;;10.37;8.40;;;8.60;99.90;;;;;;5087709;28;20422;-68
2020/12/20 12:40:59;;;;;;;14.40;8.80;;;8.70;99.90;;;;;;5092913;28;20469;-69
2020/12/20 12:43:26;;;;;;;9.97;8.90;;;8.80;99.90;;;;;;5092972;28;20475;-68
2020/12/20 12:45:53;;;;;;;11.13;10.00;;;8.80;99.90;;;;;;5093069;28;20424;-69
2020/12/20 12:48:20;;;;;;;13.40;11.00;;;8.80;99.90;;;;;;5092913;28;20939;-69
2020/12/20 12:50:46;;;;;;;9.60;8.63;;;8.90;99.90;;;;;;5090878;28;20533;-68
2020/12/20 12:53:13;;;;;;;10.30;8.27;;;8.90;99.90;;;;;;5082285;28;20479;-67
2020/12/20 12:55:40;;;;;;;7.67;6.97;;;8.90;99.90;;;;;;5080930;28;20442;-67
2020/12/20 12:58:06;;;;;;;9.37;8.47;;;8.80;99.90;;;;;;5086963;28;20429;-70